createdAt,value
2019-01-25T00:01:42.654Z,96.90
2019-01-25T00:04:09.563Z,96.20
2019-01-25T00:06:36.946Z,95.50
2019-01-25T00:09:08.167Z,95.60
2019-01-25T00:11:35.547Z,96.70
2019-01-25T00:14:02.991Z,97.90
2019-01-25T00:16:30.158Z,99.10
2019-01-25T00:18:58.455Z,99.40
2019-01-25T00:21:25.762Z,98.90
2019-01-25T00:23:53.310Z,98.30
2019-01-25T00:26:20.832Z,97.70
2019-01-25T00:28:48.081Z,98.70
2019-01-25T00:31:15.515Z,98.90
2019-01-25T00:33:42.682Z,98.20
2019-01-25T00:36:09.649Z,97.10
2019-01-25T00:38:43.331Z,97.80
2019-01-25T00:41:10.621Z,97.90
2019-01-25T00:43:37.766Z,97.60
2019-01-25T00:46:04.782Z,97.30
2019-01-25T00:48:32.150Z,97.20
2019-01-25T00:50:59.271Z,97.00
2019-01-25T00:53:26.319Z,98.10
2019-01-25T00:55:53.335Z,98.60
2019-01-25T00:58:20.736Z,97.60
2019-01-25T01:00:47.920Z,98.20
2019-01-25T01:03:15.429Z,98.40
2019-01-25T01:05:42.695Z,98.90
2019-01-25T01:08:09.588Z,99.60
2019-01-25T01:10:36.816Z,98.80
2019-01-25T01:13:04.226Z,98.50
2019-01-25T01:15:31.512Z,99.40
2019-01-25T01:17:59.110Z,99.90
2019-01-25T01:20:26.371Z,99.90
2019-01-25T01:22:53.970Z,99.90
2019-01-25T01:25:21.344Z,99.90
2019-01-25T01:27:48.591Z,99.90
2019-01-25T01:30:23.229Z,99.90
2019-01-25T01:32:51.359Z,99.90
2019-01-25T01:35:18.526Z,99.90
2019-01-25T01:37:45.910Z,99.90
2019-01-25T01:40:21.715Z,99.90
2019-01-25T01:42:45.213Z,99.30
2019-01-25T01:45:13.495Z,99.60
2019-01-25T01:47:40.648Z,99.60
2019-01-25T01:50:09.607Z,99.40
2019-01-25T01:52:37.319Z,99.90
2019-01-25T01:55:05.279Z,99.90
2019-01-25T01:57:32.364Z,99.90
2019-01-25T01:59:59.963Z,99.90
2019-01-25T02:02:28.143Z,99.90
2019-01-25T02:04:55.151Z,99.90
2019-01-25T02:07:22.289Z,99.90
2019-01-25T02:09:49.184Z,99.90
2019-01-25T02:12:16.586Z,99.90
2019-01-25T02:14:43.799Z,99.90
2019-01-25T02:17:10.811Z,99.90
2019-01-25T02:19:38.698Z,99.90
2019-01-25T02:22:05.942Z,99.90
2019-01-25T02:24:33.206Z,99.90
2019-01-25T02:27:00.559Z,99.90
2019-01-25T02:29:28.124Z,99.90
2019-01-25T02:31:55.535Z,99.90
2019-01-25T02:34:22.473Z,99.90
2019-01-25T02:36:49.926Z,99.90
2019-01-25T02:39:16.947Z,99.90
2019-01-25T02:41:44.173Z,99.90
2019-01-25T02:44:12.389Z,99.90
2019-01-25T02:46:39.912Z,99.90
2019-01-25T02:49:07.020Z,99.90
2019-01-25T02:51:34.304Z,99.90
2019-01-25T02:54:01.259Z,99.90
2019-01-25T02:56:28.611Z,99.90
2019-01-25T02:58:55.836Z,99.90
2019-01-25T03:01:23.123Z,99.90
2019-01-25T03:03:50.370Z,99.90
2019-01-25T03:06:17.363Z,99.90
2019-01-25T03:08:44.795Z,99.90
2019-01-25T03:11:12.039Z,99.90
2019-01-25T03:13:39.000Z,99.90
2019-01-25T03:16:06.325Z,99.90
2019-01-25T03:18:46.565Z,99.90
2019-01-25T03:21:14.014Z,99.90
2019-01-25T03:23:41.788Z,99.90
2019-01-25T03:26:09.597Z,99.90
2019-01-25T03:28:36.539Z,99.90
2019-01-25T03:31:03.665Z,99.90
2019-01-25T03:33:31.538Z,99.90
2019-01-25T03:35:59.035Z,99.90
2019-01-25T03:38:26.727Z,99.90
2019-01-25T03:40:55.595Z,99.90
2019-01-25T03:43:23.445Z,99.90
2019-01-25T03:45:50.707Z,99.90
2019-01-25T03:48:18.053Z,99.90
2019-01-25T03:50:45.151Z,99.90
2019-01-25T03:53:12.707Z,99.90
2019-01-25T03:55:39.966Z,99.90
2019-01-25T03:58:07.479Z,99.90
2019-01-25T04:00:34.958Z,99.90
2019-01-25T04:03:03.451Z,99.90
2019-01-25T04:05:30.981Z,99.90
2019-01-25T04:07:58.346Z,99.90
2019-01-25T04:10:27.441Z,99.90
2019-01-25T04:12:54.958Z,99.90
2019-01-25T04:15:27.478Z,99.90
2019-01-25T04:17:55.300Z,99.90
2019-01-25T04:20:23.686Z,99.90
2019-01-25T04:22:50.944Z,99.90
2019-01-25T04:25:19.355Z,99.90
2019-01-25T04:27:47.081Z,99.90
2019-01-25T04:30:19.339Z,99.90
2019-01-25T04:32:47.481Z,99.90
2019-01-25T04:35:15.039Z,99.90
2019-01-25T04:37:42.248Z,99.90
2019-01-25T04:40:12.246Z,99.90
2019-01-25T04:42:39.730Z,99.90
2019-01-25T04:45:08.556Z,99.90
2019-01-25T04:47:36.050Z,99.90
2019-01-25T04:50:05.654Z,99.90
2019-01-25T04:52:32.882Z,99.90
2019-01-25T04:55:06.648Z,99.90
2019-01-25T04:57:33.879Z,99.90
2019-01-25T05:00:01.145Z,99.90
2019-01-25T05:02:28.453Z,99.90
2019-01-25T05:04:55.703Z,99.90
2019-01-25T05:07:22.747Z,99.90
2019-01-25T05:09:50.308Z,99.90
2019-01-25T05:12:17.455Z,99.90
2019-01-25T05:14:44.754Z,99.90
2019-01-25T05:17:11.690Z,99.90
2019-01-25T05:19:39.780Z,99.90
2019-01-25T05:22:07.386Z,99.90
2019-01-25T05:24:35.066Z,99.90
2019-01-25T05:27:02.229Z,99.90
2019-01-25T05:29:54.791Z,99.90
2019-01-25T05:32:22.281Z,99.90
2019-01-25T05:34:49.563Z,99.90
2019-01-25T05:37:16.696Z,99.90
2019-01-25T05:39:44.513Z,99.90
2019-01-25T05:42:12.161Z,99.90
2019-01-25T05:44:39.524Z,99.90
2019-01-25T05:47:08.335Z,99.90
2019-01-25T05:49:35.281Z,99.90
2019-01-25T05:52:02.412Z,99.90
2019-01-25T05:54:30.185Z,99.90
2019-01-25T05:56:57.442Z,99.90
2019-01-25T05:59:24.899Z,99.90
2019-01-25T06:01:52.403Z,99.90
2019-01-25T06:04:19.881Z,99.90
2019-01-25T06:06:47.576Z,99.90
2019-01-25T06:09:19.467Z,99.90
2019-01-25T06:11:46.781Z,99.90
2019-01-25T06:14:13.937Z,99.90
2019-01-25T06:16:41.187Z,99.90
2019-01-25T06:19:08.308Z,99.90
2019-01-25T06:21:35.264Z,99.90
2019-01-25T06:24:02.367Z,99.90
2019-01-25T06:26:29.405Z,99.90
2019-01-25T06:28:56.984Z,99.90
2019-01-25T06:31:24.501Z,99.90
2019-01-25T06:33:51.835Z,99.90
2019-01-25T06:36:19.631Z,99.90
2019-01-25T06:38:46.971Z,99.90
2019-01-25T06:41:14.560Z,99.90
2019-01-25T06:43:42.023Z,99.90
2019-01-25T06:46:09.341Z,99.90
2019-01-25T06:48:36.295Z,99.90
2019-01-25T06:51:04.987Z,99.90
2019-01-25T06:53:32.667Z,99.90
2019-01-25T06:55:59.655Z,99.90
2019-01-25T06:58:41.797Z,99.90
2019-01-25T07:01:17.408Z,99.90
2019-01-25T07:03:44.534Z,99.90
2019-01-25T07:06:12.191Z,99.90
2019-01-25T07:08:39.482Z,99.90
2019-01-25T07:11:06.960Z,99.90
2019-01-25T07:13:34.400Z,99.90
2019-01-25T07:16:02.109Z,99.90
2019-01-25T07:18:29.431Z,99.90
2019-01-25T07:20:56.516Z,99.90
2019-01-25T07:23:23.766Z,99.90
2019-01-25T07:25:51.038Z,99.90
2019-01-25T07:28:18.949Z,99.90
2019-01-25T07:30:46.655Z,99.90
2019-01-25T07:33:14.149Z,99.90
2019-01-25T07:35:41.529Z,99.90
2019-01-25T07:38:09.334Z,99.90
2019-01-25T07:40:36.329Z,99.90
2019-01-25T07:43:03.722Z,99.90
2019-01-25T07:45:31.662Z,99.90
2019-01-25T07:47:59.319Z,99.90
2019-01-25T07:50:27.247Z,99.90
2019-01-25T07:52:54.401Z,99.90
2019-01-25T07:55:22.131Z,99.90
2019-01-25T07:57:49.770Z,99.90
2019-01-25T08:00:17.099Z,99.90
2019-01-25T08:02:44.850Z,99.90
2019-01-25T08:05:12.481Z,99.90
2019-01-25T08:07:40.468Z,99.90
2019-01-25T08:10:10.177Z,99.90
2019-01-25T08:12:37.577Z,99.90
2019-01-25T08:15:07.411Z,99.90
2019-01-25T08:17:34.964Z,99.90
2019-01-25T08:20:02.128Z,99.90
2019-01-25T08:22:29.331Z,99.90
2019-01-25T08:24:56.679Z,99.90
2019-01-25T08:27:24.123Z,99.90
2019-01-25T08:29:51.435Z,99.90
2019-01-25T08:32:19.012Z,99.90
2019-01-25T08:34:45.971Z,99.90
2019-01-25T08:37:12.889Z,99.90
2019-01-25T08:39:40.461Z,99.90
2019-01-25T08:42:07.351Z,99.90
2019-01-25T08:44:34.791Z,99.90
2019-01-25T08:47:02.193Z,99.90
2019-01-25T08:49:29.573Z,99.90
2019-01-25T08:51:56.957Z,99.90
2019-01-25T08:54:25.481Z,99.90
2019-01-25T08:56:53.183Z,99.90
2019-01-25T08:59:20.830Z,99.90
2019-01-25T09:01:48.084Z,99.90
2019-01-25T09:04:15.360Z,99.90
2019-01-25T09:06:43.580Z,99.90
2019-01-25T09:09:11.691Z,99.90
2019-01-25T09:11:39.230Z,99.90
2019-01-25T09:14:06.588Z,99.90
2019-01-25T09:16:34.190Z,99.90
2019-01-25T09:19:01.423Z,99.90
2019-01-25T09:21:28.804Z,99.90
2019-01-25T09:23:57.093Z,99.90
2019-01-25T09:26:26.223Z,99.90
2019-01-25T09:28:53.335Z,99.90
2019-01-25T09:31:20.727Z,99.90
2019-01-25T09:33:48.505Z,99.90
2019-01-25T09:36:28.851Z,99.90
2019-01-25T09:38:56.018Z,99.90
2019-01-25T09:41:23.442Z,99.90
2019-01-25T09:43:50.810Z,99.90
2019-01-25T09:46:18.103Z,99.90
2019-01-25T09:48:45.059Z,99.90
2019-01-25T09:51:12.130Z,99.90
2019-01-25T09:53:39.204Z,99.90
2019-01-25T09:56:06.647Z,99.90
2019-01-25T09:58:36.596Z,99.90
2019-01-25T10:01:07.003Z,99.90
2019-01-25T10:03:34.203Z,99.90
2019-01-25T10:06:01.910Z,99.90
2019-01-25T10:08:29.758Z,99.90
2019-01-25T10:10:57.176Z,99.90
2019-01-25T10:13:24.251Z,99.90
2019-01-25T10:15:51.404Z,99.90
2019-01-25T10:18:18.663Z,99.90
2019-01-25T10:20:46.069Z,99.90
2019-01-25T10:23:14.361Z,99.90
2019-01-25T10:25:41.726Z,99.90
2019-01-25T10:28:09.426Z,99.90
2019-01-25T10:30:36.740Z,99.90
2019-01-25T10:33:04.249Z,99.90
2019-01-25T10:35:43.803Z,99.90
2019-01-25T10:38:11.279Z,99.90
2019-01-25T10:40:39.033Z,99.90
2019-01-25T10:43:06.473Z,99.90
2019-01-25T10:45:35.847Z,99.90
2019-01-25T10:48:03.608Z,99.90
2019-01-25T10:50:30.935Z,99.90
2019-01-25T10:52:57.969Z,99.90
2019-01-25T10:55:25.431Z,99.90
2019-01-25T10:57:53.220Z,99.90
2019-01-25T11:00:20.999Z,99.90
2019-01-25T11:02:48.303Z,99.90
2019-01-25T11:05:18.511Z,99.90
2019-01-25T11:07:46.163Z,99.90
2019-01-25T11:10:13.354Z,99.90
2019-01-25T11:12:41.282Z,99.90
2019-01-25T11:15:10.691Z,99.90
2019-01-25T11:17:38.363Z,99.90
2019-01-25T11:20:09.917Z,99.90
2019-01-25T11:22:37.791Z,99.90
2019-01-25T11:25:06.664Z,99.90
2019-01-25T11:27:33.890Z,99.90
2019-01-25T11:30:02.109Z,99.90
2019-01-25T11:32:29.327Z,99.90
2019-01-25T11:34:56.931Z,99.90
2019-01-25T11:37:24.509Z,99.90
2019-01-25T11:39:51.571Z,99.90
2019-01-25T11:42:18.647Z,99.90
2019-01-25T11:44:45.816Z,99.90
2019-01-25T11:47:13.089Z,99.90
2019-01-25T11:49:40.597Z,99.90
2019-01-25T11:52:07.656Z,99.90
2019-01-25T11:54:35.229Z,99.90
2019-01-25T11:57:03.134Z,99.90
2019-01-25T11:59:30.681Z,99.90
2019-01-25T12:01:58.143Z,99.90
2019-01-25T12:04:25.649Z,99.90
2019-01-25T12:06:53.471Z,99.90
2019-01-25T12:09:20.826Z,99.90
2019-01-25T12:11:48.415Z,99.90
2019-01-25T12:14:15.527Z,99.90
2019-01-25T12:16:43.109Z,99.90
2019-01-25T12:19:10.850Z,99.90
2019-01-25T12:21:38.081Z,99.90
2019-01-25T12:24:05.268Z,99.90
2019-01-25T12:26:32.972Z,99.90
2019-01-25T12:29:00.115Z,99.90
2019-01-25T12:31:28.149Z,99.90
2019-01-25T12:33:55.255Z,99.90
2019-01-25T12:36:22.379Z,99.90
2019-01-25T12:38:49.658Z,99.90
2019-01-25T12:41:16.994Z,99.90
2019-01-25T12:43:44.094Z,99.90
2019-01-25T12:46:12.039Z,99.90
2019-01-25T12:48:39.419Z,99.90
2019-01-25T12:51:15.543Z,99.90
2019-01-25T12:53:43.324Z,99.90
2019-01-25T12:56:10.815Z,99.90
2019-01-25T12:58:38.622Z,99.90
2019-01-25T13:01:06.304Z,99.90
2019-01-25T13:03:34.019Z,99.90
2019-01-25T13:06:01.215Z,99.90
2019-01-25T13:08:29.023Z,99.90
2019-01-25T13:10:57.069Z,99.90
2019-01-25T13:13:31.361Z,99.90
2019-01-25T13:15:54.100Z,99.90
2019-01-25T13:18:21.133Z,99.90
2019-01-25T13:20:49.179Z,99.90
2019-01-25T13:23:16.896Z,99.90
2019-01-25T13:25:47.208Z,99.90
2019-01-25T13:28:14.971Z,99.90
2019-01-25T13:30:42.049Z,99.90
2019-01-25T13:33:09.256Z,99.90
2019-01-25T13:35:36.995Z,99.90
2019-01-25T13:38:04.566Z,99.90
2019-01-25T13:40:32.254Z,99.90
2019-01-25T13:42:59.190Z,99.90
2019-01-25T13:45:26.551Z,99.90
2019-01-25T13:47:53.694Z,99.90
2019-01-25T13:50:23.070Z,99.90
2019-01-25T13:52:50.831Z,99.90
2019-01-25T13:55:18.753Z,99.90
2019-01-25T13:57:45.958Z,99.90
2019-01-25T14:00:24.375Z,99.90
2019-01-25T14:02:51.770Z,99.90
2019-01-25T14:05:19.587Z,99.90
2019-01-25T14:07:46.943Z,99.90
2019-01-25T14:10:17.912Z,99.90
2019-01-25T14:12:45.339Z,99.90
2019-01-25T14:15:12.717Z,99.90
2019-01-25T14:17:40.180Z,99.90
2019-01-25T14:20:11.675Z,99.90
2019-01-25T14:22:38.774Z,99.90
2019-01-25T14:25:07.038Z,99.90
2019-01-25T14:27:34.440Z,99.90
2019-01-25T14:30:01.566Z,99.90
2019-01-25T14:32:30.739Z,99.90
2019-01-25T14:34:58.150Z,99.90
2019-01-25T14:37:25.293Z,99.90
2019-01-25T14:39:52.842Z,99.90
2019-01-25T14:42:20.278Z,99.90
2019-01-25T14:44:47.769Z,99.90
2019-01-25T14:47:15.008Z,99.90
2019-01-25T14:49:42.622Z,99.90
2019-01-25T14:52:09.662Z,99.90
2019-01-25T14:54:37.086Z,99.90
2019-01-25T14:57:05.108Z,99.90
2019-01-25T14:59:32.764Z,99.90
2019-01-25T15:02:00.356Z,99.90
2019-01-25T15:04:27.694Z,99.90
2019-01-25T15:06:55.861Z,99.90
2019-01-25T15:09:22.808Z,99.90
2019-01-25T15:11:49.853Z,99.90
2019-01-25T15:14:17.362Z,99.90
2019-01-25T15:16:57.439Z,99.90
2019-01-25T15:19:24.706Z,99.90
2019-01-25T15:21:52.278Z,99.90
2019-01-25T15:24:19.852Z,99.90
2019-01-25T15:26:47.312Z,99.90
2019-01-25T15:29:14.277Z,99.90
2019-01-25T15:31:41.393Z,99.90
2019-01-25T15:34:08.476Z,99.90
2019-01-25T15:36:36.061Z,99.90
2019-01-25T15:39:07.143Z,99.90
2019-01-25T15:41:34.679Z,99.90
2019-01-25T15:44:09.830Z,99.90
2019-01-25T15:46:32.955Z,99.90
2019-01-25T15:49:00.497Z,99.90
2019-01-25T15:51:27.547Z,99.90
2019-01-25T15:53:54.788Z,99.90
2019-01-25T15:56:22.306Z,99.90
2019-01-25T15:58:49.667Z,99.90
2019-01-25T16:01:17.236Z,99.90
2019-01-25T16:03:46.173Z,99.90
2019-01-25T16:06:13.541Z,99.90
2019-01-25T16:08:41.175Z,99.90
2019-01-25T16:11:08.431Z,99.90
2019-01-25T16:13:35.819Z,99.90
2019-01-25T16:16:03.304Z,99.90
2019-01-25T16:18:31.076Z,99.90
2019-01-25T16:20:58.627Z,99.90
2019-01-25T16:23:25.820Z,99.90
2019-01-25T16:25:53.095Z,99.90
2019-01-25T16:28:20.795Z,99.90
2019-01-25T16:30:48.180Z,99.90
2019-01-25T16:33:15.119Z,99.90
2019-01-25T16:35:42.683Z,99.90
2019-01-25T16:38:10.223Z,99.90
2019-01-25T16:40:38.287Z,99.90
2019-01-25T16:43:07.827Z,99.90
2019-01-25T16:45:40.479Z,99.90
2019-01-25T16:48:07.699Z,99.90
2019-01-25T16:50:35.920Z,99.90
2019-01-25T16:53:03.775Z,99.90
2019-01-25T16:55:31.091Z,99.90
2019-01-25T16:57:58.703Z,99.90
2019-01-25T17:00:34.444Z,99.90
2019-01-25T17:03:02.031Z,99.90
2019-01-25T17:05:29.459Z,99.90
2019-01-25T17:07:56.781Z,99.90
2019-01-25T17:10:24.678Z,99.90
2019-01-25T17:12:52.605Z,99.90
2019-01-25T17:15:19.879Z,99.90
2019-01-25T17:17:47.282Z,99.90
2019-01-25T17:20:20.017Z,99.90
2019-01-25T17:22:45.078Z,99.90
2019-01-25T17:25:12.571Z,99.90
2019-01-25T17:27:40.255Z,99.90
2019-01-25T17:30:14.507Z,99.90
2019-01-25T17:32:42.279Z,99.90
2019-01-25T17:35:09.332Z,99.90
2019-01-25T17:37:36.944Z,99.90
2019-01-25T17:40:06.907Z,99.90
2019-01-25T17:42:34.324Z,99.90
2019-01-25T17:45:21.629Z,99.90
2019-01-25T17:47:49.244Z,99.90
2019-01-25T17:50:16.640Z,99.90
2019-01-25T17:52:43.938Z,99.90
2019-01-25T17:55:11.470Z,99.90
2019-01-25T17:57:38.738Z,99.90
2019-01-25T18:00:15.742Z,99.90
2019-01-25T18:02:43.172Z,99.90
2019-01-25T18:05:10.336Z,99.90
2019-01-25T18:07:38.153Z,99.90
2019-01-25T18:10:07.708Z,99.90
2019-01-25T18:12:35.143Z,99.90
2019-01-25T18:15:02.559Z,99.90
2019-01-25T18:17:34.254Z,99.90
2019-01-25T18:20:01.459Z,99.90
2019-01-25T18:22:28.775Z,99.90
2019-01-25T18:24:56.975Z,99.90
2019-01-25T18:27:24.002Z,99.90
2019-01-25T18:29:56.170Z,99.90
2019-01-25T18:32:23.717Z,99.90
2019-01-25T18:34:51.422Z,99.90
2019-01-25T18:37:18.976Z,99.90
2019-01-25T18:39:46.145Z,99.90
2019-01-25T18:42:13.448Z,99.90
2019-01-25T18:44:41.202Z,99.90
2019-01-25T18:47:09.207Z,99.90
2019-01-25T18:49:36.531Z,99.90
2019-01-25T18:52:04.083Z,99.90
2019-01-25T18:54:31.698Z,99.90
2019-01-25T18:57:02.198Z,99.90
2019-01-25T18:59:29.904Z,99.90
2019-01-25T19:01:59.183Z,99.90
2019-01-25T19:04:26.684Z,99.90
2019-01-25T19:06:53.863Z,99.90
2019-01-25T19:09:21.011Z,99.90
2019-01-25T19:11:48.391Z,99.90
2019-01-25T19:14:15.883Z,99.90
2019-01-25T19:16:43.435Z,99.90
2019-01-25T19:19:10.591Z,99.90
2019-01-25T19:21:38.369Z,99.90
2019-01-25T19:24:05.508Z,99.90
2019-01-25T19:26:33.311Z,99.90
2019-01-25T19:29:01.166Z,99.90
2019-01-25T19:31:30.617Z,99.90
2019-01-25T19:33:58.555Z,99.90
2019-01-25T19:36:26.339Z,99.90
2019-01-25T19:38:53.832Z,99.90
2019-01-25T19:41:21.538Z,99.90
2019-01-25T19:43:49.111Z,99.90
2019-01-25T19:46:17.157Z,99.90
2019-01-25T19:48:44.104Z,99.90
2019-01-25T19:51:11.659Z,99.90
2019-01-25T19:53:39.166Z,99.90
2019-01-25T19:56:07.351Z,99.90
2019-01-25T19:58:34.843Z,99.90
2019-01-25T20:01:02.619Z,99.90
2019-01-25T20:03:31.111Z,99.90
2019-01-25T20:05:58.575Z,99.90
2019-01-25T20:08:26.091Z,99.90
2019-01-25T20:10:55.020Z,99.90
2019-01-25T20:13:22.848Z,99.90
2019-01-25T20:15:50.094Z,99.90
2019-01-25T20:18:17.678Z,99.90
2019-01-25T20:20:45.114Z,99.90
2019-01-25T20:23:12.260Z,99.90
2019-01-25T20:25:40.029Z,99.90
2019-01-25T20:28:07.975Z,99.90
2019-01-25T20:30:35.455Z,99.90
2019-01-25T20:33:02.960Z,99.90
2019-01-25T20:35:32.351Z,99.90
2019-01-25T20:37:59.451Z,99.90
2019-01-25T20:40:26.628Z,99.90
2019-01-25T20:42:54.358Z,99.90
2019-01-25T20:45:27.195Z,99.90
2019-01-25T20:47:54.740Z,99.90
2019-01-25T20:50:24.094Z,99.90
2019-01-25T20:52:51.513Z,99.90
2019-01-25T20:55:19.167Z,99.90
2019-01-25T20:57:47.151Z,99.90
2019-01-25T21:00:19.847Z,99.90
2019-01-25T21:02:47.535Z,99.90
2019-01-25T21:05:14.756Z,99.90
2019-01-25T21:07:42.175Z,99.90
2019-01-25T21:10:11.613Z,99.90
2019-01-25T21:12:38.559Z,99.90
2019-01-25T21:15:07.654Z,99.90
2019-01-25T21:17:35.225Z,99.90
2019-01-25T21:20:03.505Z,99.90
2019-01-25T21:22:30.959Z,99.90
2019-01-25T21:24:57.968Z,99.90
2019-01-25T21:27:25.015Z,99.90
2019-01-25T21:29:52.048Z,99.90
2019-01-25T21:32:19.259Z,99.90
2019-01-25T21:34:46.731Z,99.90
2019-01-25T21:37:14.071Z,99.90
2019-01-25T21:39:41.518Z,99.90
2019-01-25T21:42:08.967Z,99.90
2019-01-25T21:44:36.297Z,99.90
2019-01-25T21:47:03.766Z,99.90
2019-01-25T21:49:30.875Z,99.90
2019-01-25T21:51:58.244Z,99.90
2019-01-25T21:54:25.638Z,99.90
2019-01-25T21:56:52.999Z,99.90
2019-01-25T21:59:21.263Z,99.90
2019-01-25T22:01:48.955Z,99.90
2019-01-25T22:04:16.233Z,99.90
2019-01-25T22:06:43.487Z,99.90
2019-01-25T22:09:11.635Z,99.90
2019-01-25T22:11:39.221Z,99.90
2019-01-25T22:14:06.434Z,99.90
2019-01-25T22:16:33.605Z,99.90
2019-01-25T22:19:01.248Z,99.90
2019-01-25T22:21:28.516Z,99.90
2019-01-25T22:23:55.663Z,99.90
2019-01-25T22:26:22.836Z,99.90
2019-01-25T22:28:50.354Z,99.90
2019-01-25T22:31:17.512Z,99.90
2019-01-25T22:33:44.656Z,99.90
2019-01-25T22:36:11.741Z,99.90
2019-01-25T22:38:39.086Z,99.90
2019-01-25T22:41:06.463Z,99.90
2019-01-25T22:43:33.478Z,99.90
2019-01-25T22:46:01.351Z,99.90
2019-01-25T22:48:28.573Z,99.90
2019-01-25T22:50:55.730Z,99.90
2019-01-25T22:53:22.856Z,99.90
2019-01-25T22:55:50.467Z,99.90
2019-01-25T22:58:17.870Z,99.90
2019-01-25T23:01:07.838Z,99.90
2019-01-25T23:03:38.492Z,99.90
2019-01-25T23:06:25.294Z,99.90
2019-01-25T23:08:53.034Z,99.90
2019-01-25T23:11:20.599Z,99.90
2019-01-25T23:13:47.527Z,99.90
2019-01-25T23:16:14.652Z,99.90
2019-01-25T23:18:41.923Z,99.90
2019-01-25T23:21:09.275Z,99.90
2019-01-25T23:23:36.460Z,99.90
2019-01-25T23:26:04.580Z,99.90
2019-01-25T23:28:32.820Z,99.90
2019-01-25T23:31:01.603Z,99.90
2019-01-25T23:33:29.510Z,99.90
2019-01-25T23:35:56.494Z,99.90
2019-01-25T23:38:23.679Z,99.90
2019-01-25T23:40:51.183Z,99.90
2019-01-25T23:43:18.321Z,99.90
2019-01-25T23:45:45.434Z,99.90
2019-01-25T23:48:12.827Z,99.90
2019-01-25T23:50:39.877Z,99.90
2019-01-25T23:53:07.219Z,99.90
2019-01-25T23:55:34.503Z,99.90
2019-01-25T23:58:02.035Z,99.90
